sensor_id;sensor_type;location;lat;lon;timestamp;pressure;altitude;pressure_sealevel;temperature;humidity
53960;BME280;39866;48.638;-2.020;2022-08-21T17:59:39;101380.59;;;23.17;72.80
53960;BME280;39866;48.638;-2.020;2022-08-21T18:02:05;101378.19;;;23.26;71.42
53960;BME280;39866;48.638;-2.020;2022-08-21T18:04:31;101380.06;;;23.12;69.69
53960;BME280;39866;48.638;-2.020;2022-08-21T18:06:57;101365.69;;;22.97;70.46
53960;BME280;39866;48.638;-2.020;2022-08-21T18:09:22;101376.91;;;22.93;70.70
53960;BME280;39866;48.638;-2.020;2022-08-21T18:11:52;101376.81;;;22.94;71.28
53960;BME280;39866;48.638;-2.020;2022-08-21T18:14:23;101376.56;;;22.97;71.64
53960;BME280;39866;48.638;-2.020;2022-08-21T18:16:49;101372.88;;;23.11;71.30
53960;BME280;39866;48.638;-2.020;2022-08-21T18:19:14;101373.94;;;23.21;71.01
53960;BME280;39866;48.638;-2.020;2022-08-21T18:21:42;101369.94;;;23.27;71.07
53960;BME280;39866;48.638;-2.020;2022-08-21T18:24:07;101377.19;;;23.27;70.87
53960;BME280;39866;48.638;-2.020;2022-08-21T18:26:38;101369.16;;;23.25;71.01
53960;BME280;39866;48.638;-2.020;2022-08-21T18:29:07;101365.59;;;23.24;70.52
53960;BME280;39866;48.638;-2.020;2022-08-21T18:31:34;101370.81;;;23.28;70.54
53960;BME280;39866;48.638;-2.020;2022-08-21T18:34:02;101380.78;;;23.40;70.33
53960;BME280;39866;48.638;-2.020;2022-08-21T18:36:29;101384.03;;;23.45;70.18
53960;BME280;39866;48.638;-2.020;2022-08-21T18:38:54;101384.47;;;23.39;70.19
53960;BME280;39866;48.638;-2.020;2022-08-21T18:41:20;101383.91;;;23.46;70.08
53960;BME280;39866;48.638;-2.020;2022-08-21T18:43:46;101387.50;;;23.47;69.81
53960;BME280;39866;48.638;-2.020;2022-08-21T18:46:11;101383.81;;;23.48;69.70
53960;BME280;39866;48.638;-2.020;2022-08-21T18:48:37;101381.41;;;23.56;69.56
53960;BME280;39866;48.638;-2.020;2022-08-21T18:51:02;101375.53;;;23.49;69.64
53960;BME280;39866;48.638;-2.020;2022-08-21T18:53:27;101383.38;;;23.41;69.41
53960;BME280;39866;48.638;-2.020;2022-08-21T18:55:53;101379.03;;;23.39;69.62
53960;BME280;39866;48.638;-2.020;2022-08-21T18:58:19;101377.50;;;23.35;69.65
53960;BME280;39866;48.638;-2.020;2022-08-21T19:00:48;101386.66;;;23.34;69.40
53960;BME280;39866;48.638;-2.020;2022-08-21T19:03:17;101396.88;;;23.30;69.25
53960;BME280;39866;48.638;-2.020;2022-08-21T19:05:43;101399.06;;;23.25;69.24
53960;BME280;39866;48.638;-2.020;2022-08-21T19:08:14;101413.09;;;23.19;69.96
53960;BME280;39866;48.638;-2.020;2022-08-21T19:10:42;101419.16;;;23.22;69.49
53960;BME280;39866;48.638;-2.020;2022-08-21T19:13:10;101431.09;;;23.33;69.41
53960;BME280;39866;48.638;-2.020;2022-08-21T19:15:38;101420.25;;;23.33;69.54
53960;BME280;39866;48.638;-2.020;2022-08-21T19:18:09;101417.75;;;23.30;69.66
53960;BME280;39866;48.638;-2.020;2022-08-21T19:20:35;101426.44;;;23.22;69.58
53960;BME280;39866;48.638;-2.020;2022-08-21T19:23:03;101421.66;;;23.26;69.86
53960;BME280;39866;48.638;-2.020;2022-08-21T19:25:30;101423.63;;;23.23;69.85
53960;BME280;39866;48.638;-2.020;2022-08-21T19:27:56;101422.84;;;23.21;69.76
53960;BME280;39866;48.638;-2.020;2022-08-21T19:30:22;101415.91;;;23.17;70.10
53960;BME280;39866;48.638;-2.020;2022-08-21T19:32:47;101422.72;;;23.10;69.88
53960;BME280;39866;48.638;-2.020;2022-08-21T19:35:14;101432.53;;;23.13;70.17
53960;BME280;39866;48.638;-2.020;2022-08-21T19:37:42;101433.38;;;23.13;70.05
53960;BME280;39866;48.638;-2.020;2022-08-21T19:40:08;101432.19;;;23.17;70.09
53960;BME280;39866;48.638;-2.020;2022-08-21T19:42:34;101431.97;;;23.20;69.83
53960;BME280;39866;48.638;-2.020;2022-08-21T19:45:01;101435.44;;;23.22;69.75
53960;BME280;39866;48.638;-2.020;2022-08-21T19:47:27;101436.44;;;23.21;69.59
53960;BME280;39866;48.638;-2.020;2022-08-21T19:49:56;101437.53;;;23.19;69.70
53960;BME280;39866;48.638;-2.020;2022-08-21T19:52:23;101423.19;;;23.04;69.23
53960;BME280;39866;48.638;-2.020;2022-08-21T19:54:48;101434.03;;;23.04;69.18
53960;BME280;39866;48.638;-2.020;2022-08-21T19:57:13;101433.38;;;23.01;69.31
53960;BME280;39866;48.638;-2.020;2022-08-21T19:59:40;101444.13;;;23.02;69.25
53960;BME280;39866;48.638;-2.020;2022-08-21T20:02:07;101442.22;;;22.90;68.92
53960;BME280;39866;48.638;-2.020;2022-08-21T20:04:33;101443.78;;;22.94;68.73
53960;BME280;39866;48.638;-2.020;2022-08-21T20:06:59;101445.09;;;23.01;68.59
53960;BME280;39866;48.638;-2.020;2022-08-21T20:09:24;101442.94;;;22.93;68.27
53960;BME280;39866;48.638;-2.020;2022-08-21T20:11:52;101433.22;;;22.89;68.70
53960;BME280;39866;48.638;-2.020;2022-08-21T20:14:21;101437.16;;;22.98;68.04
53960;BME280;39866;48.638;-2.020;2022-08-21T20:16:49;101439.88;;;22.98;68.15
53960;BME280;39866;48.638;-2.020;2022-08-21T20:19:15;101441.88;;;22.82;68.25
53960;BME280;39866;48.638;-2.020;2022-08-21T20:21:42;101437.03;;;22.87;68.32
53960;BME280;39866;48.638;-2.020;2022-08-21T20:24:08;101443.59;;;22.97;67.66
53960;BME280;39866;48.638;-2.020;2022-08-21T20:26:34;101449.88;;;23.10;67.37
53960;BME280;39866;48.638;-2.020;2022-08-21T20:29:00;101449.34;;;23.05;67.46
53960;BME280;39866;48.638;-2.020;2022-08-21T20:31:26;101455.75;;;23.04;67.32
53960;BME280;39866;48.638;-2.020;2022-08-21T20:33:52;101450.13;;;23.07;67.58
53960;BME280;39866;48.638;-2.020;2022-08-21T20:36:19;101443.84;;;23.07;67.11
53960;BME280;39866;48.638;-2.020;2022-08-21T20:38:45;101436.97;;;23.01;67.54
53960;BME280;39866;48.638;-2.020;2022-08-21T20:41:11;101437.50;;;23.06;67.42
53960;BME280;39866;48.638;-2.020;2022-08-21T20:43:37;101444.13;;;23.02;67.22
53960;BME280;39866;48.638;-2.020;2022-08-21T20:46:04;101438.69;;;23.02;67.47
53960;BME280;39866;48.638;-2.020;2022-08-21T20:48:36;101427.72;;;22.91;67.50
53960;BME280;39866;48.638;-2.020;2022-08-21T20:51:08;101434.41;;;22.85;67.52
53960;BME280;39866;48.638;-2.020;2022-08-21T20:53:44;101422.03;;;22.81;67.70
53960;BME280;39866;48.638;-2.020;2022-08-21T20:56:17;101434.41;;;22.85;67.69
53960;BME280;39866;48.638;-2.020;2022-08-21T20:58:52;101426.19;;;22.87;68.01
53960;BME280;39866;48.638;-2.020;2022-08-21T21:01:18;101423.16;;;22.91;67.87
53960;BME280;39866;48.638;-2.020;2022-08-21T21:04:01;101420.16;;;22.82;67.98
53960;BME280;39866;48.638;-2.020;2022-08-21T21:06:29;101422.47;;;22.88;67.83
53960;BME280;39866;48.638;-2.020;2022-08-21T21:09:03;101418.03;;;22.87;68.07
53960;BME280;39866;48.638;-2.020;2022-08-21T21:11:42;101430.22;;;22.94;67.90
53960;BME280;39866;48.638;-2.020;2022-08-21T21:14:23;101435.56;;;22.95;68.06
53960;BME280;39866;48.638;-2.020;2022-08-21T21:16:56;101419.47;;;23.05;67.43
53960;BME280;39866;48.638;-2.020;2022-08-21T21:19:35;101416.97;;;23.02;67.66
53960;BME280;39866;48.638;-2.020;2022-08-21T21:22:09;101420.13;;;22.96;68.09
53960;BME280;39866;48.638;-2.020;2022-08-21T21:27:22;101424.84;;;22.80;68.60
53960;BME280;39866;48.638;-2.020;2022-08-21T21:29:59;101410.50;;;22.78;68.61
53960;BME280;39866;48.638;-2.020;2022-08-21T21:32:27;101408.44;;;22.81;68.54
53960;BME280;39866;48.638;-2.020;2022-08-21T21:34:52;101407.59;;;22.81;69.00
53960;BME280;39866;48.638;-2.020;2022-08-21T21:37:26;101400.41;;;22.80;68.46
53960;BME280;39866;48.638;-2.020;2022-08-21T21:43:10;101406.19;;;22.88;68.25
53960;BME280;39866;48.638;-2.020;2022-08-21T21:50:56;101399.41;;;22.95;67.94
53960;BME280;39866;48.638;-2.020;2022-08-21T21:56:41;101403.59;;;22.86;67.74
53960;BME280;39866;48.638;-2.020;2022-08-21T22:02:19;101409.63;;;22.77;67.48
53960;BME280;39866;48.638;-2.020;2022-08-21T22:05:12;101399.09;;;22.72;67.39
53960;BME280;39866;48.638;-2.020;2022-08-21T22:07:55;101413.19;;;22.65;67.66
53960;BME280;39866;48.638;-2.020;2022-08-21T22:15:29;101400.41;;;22.80;67.66
53960;BME280;39866;48.638;-2.020;2022-08-21T22:18:01;101395.13;;;22.78;67.30
53960;BME280;39866;48.638;-2.020;2022-08-21T22:20:49;101386.66;;;22.83;67.54
53960;BME280;39866;48.638;-2.020;2022-08-21T22:23:23;101374.00;;;22.69;67.71
53960;BME280;39866;48.638;-2.020;2022-08-21T22:25:51;101366.44;;;22.74;67.47
53960;BME280;39866;48.638;-2.020;2022-08-21T22:28:21;101356.44;;;22.74;67.63
53960;BME280;39866;48.638;-2.020;2022-08-21T22:30:54;101357.72;;;22.69;67.85
53960;BME280;39866;48.638;-2.020;2022-08-21T22:33:26;101357.31;;;22.62;68.07
53960;BME280;39866;48.638;-2.020;2022-08-21T22:35:54;101355.34;;;22.64;67.84
53960;BME280;39866;48.638;-2.020;2022-08-21T22:38:33;101363.28;;;22.80;67.50
53960;BME280;39866;48.638;-2.020;2022-08-21T22:43:56;101365.34;;;22.77;67.81
53960;BME280;39866;48.638;-2.020;2022-08-21T22:49:02;101369.38;;;22.84;67.89
53960;BME280;39866;48.638;-2.020;2022-08-21T22:51:38;101356.44;;;22.74;67.80
53960;BME280;39866;48.638;-2.020;2022-08-21T22:54:09;101342.75;;;22.63;68.24
53960;BME280;39866;48.638;-2.020;2022-08-21T22:56:40;101342.75;;;22.50;68.50
53960;BME280;39866;48.638;-2.020;2022-08-21T22:59:20;101348.38;;;22.60;68.33
53960;BME280;39866;48.638;-2.020;2022-08-21T23:01:53;101349.03;;;22.64;68.49
53960;BME280;39866;48.638;-2.020;2022-08-21T23:04:23;101350.78;;;22.65;68.34
53960;BME280;39866;48.638;-2.020;2022-08-21T23:09:37;101344.06;;;22.70;68.10
53960;BME280;39866;48.638;-2.020;2022-08-21T23:12:29;101349.91;;;22.77;67.63
53960;BME280;39866;48.638;-2.020;2022-08-21T23:14:59;101349.91;;;22.77;67.36
53960;BME280;39866;48.638;-2.020;2022-08-21T23:23:23;101324.28;;;22.43;68.32
53960;BME280;39866;48.638;-2.020;2022-08-21T23:31:56;101352.16;;;22.45;68.75
53960;BME280;39866;48.638;-2.020;2022-08-21T23:34:58;101356.84;;;22.43;68.79
53960;BME280;39866;48.638;-2.020;2022-08-21T23:37:56;101352.94;;;22.60;68.64
53960;BME280;39866;48.638;-2.020;2022-08-21T23:43:19;101338.59;;;22.45;69.19
53960;BME280;39866;48.638;-2.020;2022-08-21T23:46:15;101330.78;;;22.53;69.14
53960;BME280;39866;48.638;-2.020;2022-08-21T23:59:58;101334.81;;;22.47;68.86
